createdAt,value
2022-08-07T04:00:30.548Z,99358.66
2022-08-07T04:04:46.069Z,99355.44
2022-08-07T04:08:58.322Z,99362.91
2022-08-07T04:13:15.530Z,99362.97
2022-08-07T04:18:30.946Z,99363.63
2022-08-07T04:22:07.792Z,99359.50
2022-08-07T04:26:28.513Z,99373.34
2022-08-07T04:30:55.205Z,99375.97
2022-08-07T04:35:13.739Z,99387.84
2022-08-07T04:39:29.956Z,99389.63
2022-08-07T04:44:11.964Z,99388.06
2022-08-07T04:48:35.921Z,99388.66
2022-08-07T04:53:04.983Z,99392.19
2022-08-07T04:58:27.480Z,99395.44
2022-08-07T05:02:11.337Z,99394.00
2022-08-07T05:06:43.709Z,99400.63
2022-08-07T05:11:19.293Z,99403.81
2022-08-07T05:15:37.476Z,99400.84
2022-08-07T05:19:53.682Z,99404.72
2022-08-07T05:24:11.462Z,99407.16
2022-08-07T05:28:26.688Z,99409.19
2022-08-07T05:32:41.211Z,99418.69
2022-08-07T05:36:55.797Z,99418.09
2022-08-07T05:41:18.480Z,99419.16
2022-08-07T05:45:47.565Z,99421.47
2022-08-07T05:50:03.822Z,99421.22
2022-08-07T05:54:31.340Z,99421.94
2022-08-07T05:58:53.084Z,99421.53
2022-08-07T06:03:09.882Z,99411.03
2022-08-07T06:08:13.569Z,99403.75
2022-08-07T06:11:55.173Z,99400.66
2022-08-07T06:16:10.262Z,99395.72
2022-08-07T06:20:50.057Z,99414.03
2022-08-07T06:25:01.094Z,99397.03
2022-08-07T06:29:44.745Z,99405.31
2022-08-07T06:33:57.678Z,99404.72
2022-08-07T06:38:20.404Z,99402.97
2022-08-07T06:42:37.588Z,99402.09
2022-08-07T06:47:15.610Z,99407.38
2022-08-07T06:51:33.535Z,99400.81
2022-08-07T06:55:53.764Z,99408.31
2022-08-07T07:00:18.406Z,99410.56
2022-08-07T07:04:34.059Z,99421.69
2022-08-07T07:08:48.402Z,99418.78
2022-08-07T07:13:56.072Z,99413.50
2022-08-07T07:18:11.481Z,99415.09
2022-08-07T07:22:36.744Z,99418.00
2022-08-07T07:26:59.667Z,99409.91
2022-08-07T07:31:21.612Z,99411.47
2022-08-07T07:35:44.051Z,99407.63
2022-08-07T07:40:14.790Z,99409.25
2022-08-07T07:44:28.952Z,99410.88
2022-08-07T07:48:41.944Z,99410.88
2022-08-07T07:52:58.248Z,99400.66
2022-08-07T07:57:14.943Z,99401.28
2022-08-07T08:02:03.992Z,99403.06
2022-08-07T08:06:06.267Z,99396.09
2022-08-07T08:10:38.156Z,99398.91
2022-08-07T08:14:50.680Z,99391.44
2022-08-07T08:19:18.215Z,99385.44
2022-08-07T08:23:59.935Z,99401.72
2022-08-07T08:28:23.958Z,99386.91
2022-08-07T08:32:59.385Z,99383.06
2022-08-07T08:38:01.627Z,99379.69
2022-08-07T08:41:58.981Z,99381.44
2022-08-07T08:46:41.094Z,99378.63
2022-08-07T08:51:03.370Z,99378.72
2022-08-07T08:55:54.394Z,99375.88
2022-08-07T09:00:08.555Z,99363.22
2022-08-07T09:04:25.943Z,99375.88
2022-08-07T09:08:49.292Z,99367.34
2022-08-07T09:13:14.853Z,99368.09
2022-08-07T09:18:01.428Z,99371.97
2022-08-07T09:24:32.666Z,99361.47
2022-08-07T09:28:00.624Z,99356.91
2022-08-07T09:32:28.243Z,99348.66
2022-08-07T09:36:55.455Z,99341.72
2022-08-07T09:41:43.131Z,99337.53
2022-08-07T09:47:25.246Z,99340.22
2022-08-07T09:52:10.008Z,99333.13
2022-08-07T09:56:03.273Z,99329.31
2022-08-07T10:00:20.484Z,99332.38
2022-08-07T10:05:13.878Z,99320.47
2022-08-07T10:10:00.793Z,99318.09
2022-08-07T10:14:30.445Z,99300.03
2022-08-07T10:19:00.575Z,99287.22
2022-08-07T10:24:05.476Z,99291.66
2022-08-07T10:28:41.045Z,99285.31
2022-08-07T10:33:01.150Z,99281.31
2022-08-07T10:38:00.963Z,99282.84
2022-08-07T10:42:21.450Z,99280.28
2022-08-07T10:46:53.985Z,99274.59
2022-08-07T10:51:16.849Z,99267.41
2022-08-07T10:55:47.350Z,99277.53
2022-08-07T11:00:09.607Z,99261.44
2022-08-07T11:04:41.136Z,99257.97
2022-08-07T11:10:07.589Z,99273.50
2022-08-07T11:14:46.295Z,99257.28
2022-08-07T11:19:03.230Z,99256.97
2022-08-07T11:23:26.268Z,99253.22
2022-08-07T11:28:02.855Z,99247.34
2022-08-07T11:32:25.277Z,99233.84
2022-08-07T11:37:00.437Z,99253.53
2022-08-07T11:41:28.265Z,99224.88
2022-08-07T11:46:19.465Z,99226.66
2022-08-07T11:50:59.783Z,99212.72
2022-08-07T11:56:26.136Z,99219.84
2022-08-07T12:00:37.279Z,99215.94
2022-08-07T12:05:09.135Z,99211.91
2022-08-07T12:09:35.224Z,99218.38
2022-08-07T12:13:53.836Z,99200.97
2022-08-07T12:18:22.377Z,99207.84
2022-08-07T12:23:09.424Z,99207.09
2022-08-07T12:28:08.506Z,99214.47
2022-08-07T12:32:17.279Z,99193.06
2022-08-07T12:36:33.462Z,99197.84
2022-08-07T12:40:50.577Z,99194.25
2022-08-07T12:45:11.562Z,99188.16
2022-08-07T12:49:53.306Z,99180.75
2022-08-07T12:54:38.632Z,99191.97
2022-08-07T12:58:59.600Z,99186.41
2022-08-07T13:03:59.244Z,99181.75
2022-08-07T13:08:26.545Z,99183.41
2022-08-07T13:12:50.538Z,99178.19
2022-08-07T13:17:23.197Z,99176.06
2022-08-07T13:22:19.642Z,99171.47
2022-08-07T13:26:46.728Z,99161.31
2022-08-07T13:31:13.473Z,99163.47
2022-08-07T13:35:25.222Z,99155.97
2022-08-07T13:40:36.578Z,99175.00
2022-08-07T13:44:41.076Z,99167.16
2022-08-07T13:48:59.782Z,99151.41
2022-08-07T13:53:25.296Z,99153.00
2022-08-07T13:58:01.592Z,99141.25
2022-08-07T14:02:33.461Z,99144.44
2022-08-07T14:06:53.884Z,99147.66
2022-08-07T14:11:17.294Z,99137.22
2022-08-07T14:15:42.726Z,99142.31
2022-08-07T14:20:40.177Z,99126.25
2022-08-07T14:24:51.300Z,99134.78
2022-08-07T14:30:02.553Z,99119.28
2022-08-07T14:33:45.368Z,99120.63
2022-08-07T14:38:03.561Z,99132.94
2022-08-07T14:42:24.966Z,99121.69
2022-08-07T14:46:38.018Z,99113.63
2022-08-07T14:51:15.707Z,99108.31
2022-08-07T14:55:33.734Z,99107.47
2022-08-07T15:00:05.190Z,99103.69
2022-08-07T15:04:21.773Z,99098.91
2022-08-07T15:08:50.402Z,99095.44
2022-08-07T15:13:25.383Z,99098.41
2022-08-07T15:17:54.568Z,99101.06
2022-08-07T15:26:47.443Z,99097.06
2022-08-07T15:36:01.423Z,99087.13
2022-08-07T15:40:20.499Z,99096.78
2022-08-07T15:44:52.041Z,99073.72
2022-08-07T15:49:12.654Z,99078.56
2022-08-07T15:53:41.898Z,99068.34
2022-08-07T15:58:06.158Z,99067.28
2022-08-07T16:02:46.972Z,99071.06
2022-08-07T16:08:30.742Z,99067.81
2022-08-07T16:12:12.867Z,99076.41
2022-08-07T16:17:15.979Z,99067.81
2022-08-07T16:22:01.975Z,99069.97
2022-08-07T16:26:30.818Z,99062.44
2022-08-07T16:31:00.192Z,99068.91
2022-08-07T16:35:16.698Z,99069.97
2022-08-07T16:40:28.748Z,99075.84
2022-08-07T16:45:14.674Z,99065.94
2022-08-07T16:50:28.506Z,99058.19
2022-08-07T16:54:59.134Z,99066.47
2022-08-07T16:59:47.101Z,99065.66
2022-08-07T17:04:14.010Z,99071.56
2022-08-07T17:09:08.871Z,99064.53
2022-08-07T17:14:18.691Z,99077.34
2022-08-07T17:18:37.323Z,99073.31
2022-08-07T17:22:59.725Z,99078.66
2022-08-07T17:27:19.752Z,99085.91
2022-08-07T17:31:44.000Z,99085.03
2022-08-07T17:36:26.215Z,99083.63
2022-08-07T17:40:56.447Z,99084.09
2022-08-07T17:45:19.669Z,99087.81
2022-08-07T17:49:44.974Z,99081.34
2022-08-07T17:54:29.860Z,99089.41
2022-08-07T17:58:56.969Z,99089.81
2022-08-07T18:03:20.931Z,99094.06
2022-08-07T18:07:37.371Z,99094.19
2022-08-07T18:12:19.885Z,99094.41
2022-08-07T18:16:58.534Z,99094.81
2022-08-07T18:21:55.276Z,99108.38
2022-08-07T18:26:20.258Z,99109.22
2022-08-07T18:30:48.563Z,99109.66
2022-08-07T18:35:51.954Z,99113.53
2022-08-07T18:40:17.973Z,99107.38
2022-08-07T18:45:44.873Z,99115.25
2022-08-07T18:50:30.206Z,99118.78
2022-08-07T18:54:30.775Z,99120.78
2022-08-07T18:58:54.256Z,99130.50
2022-08-07T19:03:38.771Z,99131.56
2022-08-07T19:08:07.703Z,99131.81
2022-08-07T19:12:31.852Z,99141.44
2022-08-07T19:17:07.724Z,99139.22
2022-08-07T19:21:53.395Z,99155.16
2022-08-07T19:26:25.066Z,99161.22
2022-08-07T19:31:03.911Z,99168.06
2022-08-07T19:35:26.685Z,99174.59
2022-08-07T19:39:57.251Z,99170.41
2022-08-07T19:44:21.340Z,99182.22
2022-08-07T19:48:56.007Z,99181.19
2022-08-07T19:54:32.371Z,99187.81
2022-08-07T19:58:12.438Z,99188.34
2022-08-07T20:02:34.876Z,99190.38
2022-08-07T20:06:53.371Z,99204.22
2022-08-07T20:11:15.112Z,99202.63
2022-08-07T20:15:37.454Z,99204.09
2022-08-07T20:19:58.463Z,99220.44
2022-08-07T20:24:21.981Z,99213.50
2022-08-07T20:28:36.848Z,99214.69
2022-08-07T20:32:54.983Z,99215.59
2022-08-07T20:37:09.111Z,99222.88
2022-08-07T20:41:24.643Z,99216.28
2022-08-07T20:46:28.046Z,99210.63
2022-08-07T20:50:18.220Z,99216.69
2022-08-07T20:54:32.007Z,99210.19
2022-08-07T20:58:49.561Z,99211.25
2022-08-07T21:03:05.283Z,99212.78
2022-08-07T21:07:23.407Z,99206.34
2022-08-07T21:11:46.100Z,99200.06
2022-08-07T21:16:05.114Z,99210.31
2022-08-07T21:20:26.564Z,99206.09
2022-08-07T21:25:12.066Z,99205.31
2022-08-07T21:29:37.420Z,99212.66
